Weather at Ruteig Airstrip

Public forecast

Using degrees Celsius for public forecast. Weather courtesy of forecast.io.

Closest aviation weather report (METAR) to Ruteig Airstrip

Closest report is Sandefjord Airport, Torp, 17.4 nm (32.3 km) S.

2024/05/26 18:50 (retrieved 28 minutes ago)

ENTO 261850Z VRB01KT 9999 VCSH SCT040CB BKN072 16/14 Q1018 NOSIG

Closest aviation forecast (TAF) to Ruteig Airstrip

Closest forecast is Sandefjord Airport, Torp, 17.4 nm (32.3 km) S.

2024/05/26 18:37 (retrieved 41 minutes ago)

TAF ENTO 261700Z 2618/2718 13008KT 9999 FEW040 TEMPO 2618/2704 SHRA TS SCT040CB TEMPO 2618/2619 15018G32KT TS PROB40 2704/2708 BKN010 BECMG 2706/2708 19015KT TEMPO 2712/2718 FEW030CB